Time;durP1;ratioP1;P1;durP2;ratioP2;P2;SDS_P1;SDS_P2;PMS_P1;PMS_P2;Temp;Humidity;BMP_temperature;BMP_pressure;BME280_temperature;BME280_humidity;BME280_pressure;Samples;Min_cycle;Max_cycle;Signal;HPM_P1;HPM_P2
2021/06/16 00:00:36;;;;;;;11.93;7.60;;;18.80;99.90;;;;;;5061915;28;20455;-74
2021/06/16 00:03:25;;;;;;;11.87;7.77;;;18.70;99.90;;;;;;5062872;28;20463;-74
2021/06/16 00:06:11;;;;;;;8.33;6.43;;;18.70;99.90;;;;;;5058777;28;20419;-76
2021/06/16 00:08:57;;;;;;;9.77;6.90;;;18.70;99.90;;;;;;5064733;28;20932;-75
2021/06/16 00:11:42;;;;;;;10.80;7.77;;;18.60;99.90;;;;;;5060249;28;20443;-75
2021/06/16 00:14:28;;;;;;;8.57;7.47;;;18.70;99.90;;;;;;5055871;28;20446;-75
2021/06/16 00:17:13;;;;;;;8.57;7.67;;;18.70;99.90;;;;;;5068569;28;20840;-76
2021/06/16 00:20:00;;;;;;;9.17;7.67;;;18.60;99.90;;;;;;5061313;28;21031;-75
2021/06/16 00:22:46;;;;;;;11.00;7.50;;;18.60;99.90;;;;;;5067575;28;20447;-75
2021/06/16 00:25:33;;;;;;;13.80;7.77;;;18.60;99.90;;;;;;5072840;28;20483;-75
2021/06/16 00:28:18;;;;;;;18.73;8.13;;;18.50;99.90;;;;;;5063253;28;20421;-75
2021/06/16 00:31:04;;;;;;;9.03;7.63;;;18.50;99.90;;;;;;5067633;28;20541;-76
2021/06/16 00:33:50;;;;;;;9.10;7.90;;;18.50;99.90;;;;;;5071738;28;20504;-78
2021/06/16 00:36:37;;;;;;;12.00;7.10;;;18.50;99.90;;;;;;5063709;28;20490;-75
2021/06/16 00:39:23;;;;;;;7.93;7.13;;;18.40;99.90;;;;;;5063788;28;20811;-75
2021/06/16 00:42:09;;;;;;;10.40;7.30;;;18.50;99.90;;;;;;5065124;28;20442;-76
2021/06/16 00:44:55;;;;;;;9.83;7.00;;;18.40;99.90;;;;;;5065843;28;20439;-74
2021/06/16 00:47:41;;;;;;;8.17;6.87;;;18.40;99.90;;;;;;5053926;28;20484;-75
2021/06/16 00:50:28;;;;;;;10.80;7.90;;;18.40;99.90;;;;;;5067356;28;20452;-75
2021/06/16 00:53:15;;;;;;;8.50;7.13;;;18.40;99.90;;;;;;5062183;28;20536;-75
2021/06/16 00:56:01;;;;;;;12.17;7.03;;;18.40;99.90;;;;;;5066927;28;20468;-75
2021/06/16 00:58:47;;;;;;;8.40;6.90;;;18.40;99.90;;;;;;5061576;28;21192;-77
2021/06/16 01:01:33;;;;;;;11.83;7.60;;;18.40;99.90;;;;;;5063849;28;20467;-74
2021/06/16 01:04:23;;;;;;;12.63;7.67;;;18.40;99.90;;;;;;5063180;28;20862;-76
2021/06/16 01:07:12;;;;;;;9.97;6.83;;;18.40;99.90;;;;;;5060893;28;20474;-76
2021/06/16 01:10:02;;;;;;;8.70;7.37;;;18.40;99.90;;;;;;5055963;28;20459;-75
2021/06/16 01:12:58;;;;;;;8.03;6.40;;;18.40;99.90;;;;;;5064863;28;20826;-75
2021/06/16 01:15:50;;;;;;;13.80;7.50;;;18.30;99.90;;;;;;5067276;28;20463;-75
2021/06/16 01:18:43;;;;;;;9.83;7.30;;;18.20;99.90;;;;;;5061436;28;20444;-73
2021/06/16 01:21:29;;;;;;;10.30;8.27;;;18.20;99.90;;;;;;5072304;28;20438;-74
2021/06/16 01:24:19;;;;;;;14.30;8.90;;;18.20;99.90;;;;;;5073445;28;20520;-74
2021/06/16 01:27:06;;;;;;;8.90;7.90;;;18.10;99.90;;;;;;5082949;28;20457;-74
2021/06/16 01:29:55;;;;;;;10.70;7.40;;;18.20;99.90;;;;;;5079307;28;20415;-74
2021/06/16 01:32:41;;;;;;;8.80;7.37;;;18.10;99.90;;;;;;5074748;28;20445;-74
2021/06/16 01:35:30;;;;;;;10.83;7.47;;;18.10;99.90;;;;;;5072035;28;20851;-74
2021/06/16 01:38:17;;;;;;;11.37;7.57;;;18.10;99.90;;;;;;5072079;28;21238;-74
2021/06/16 01:41:04;;;;;;;7.60;6.50;;;18.00;99.90;;;;;;5063013;28;20444;-74
2021/06/16 01:43:55;;;;;;;9.00;7.43;;;18.00;99.90;;;;;;5081493;28;20519;-73
2021/06/16 01:46:42;;;;;;;10.73;8.07;;;18.00;99.90;;;;;;5078728;28;20431;-74
2021/06/16 01:49:29;;;;;;;12.40;8.70;;;18.10;99.90;;;;;;5079299;28;20446;-74
2021/06/16 01:52:17;;;;;;;10.60;7.00;;;18.20;99.90;;;;;;5059678;28;20964;-74
2021/06/16 01:55:03;;;;;;;8.83;7.10;;;18.10;99.90;;;;;;5065189;28;20486;-74
2021/06/16 01:57:53;;;;;;;13.50;8.53;;;18.20;99.90;;;;;;5066562;28;20952;-74
2021/06/16 02:00:42;;;;;;;9.27;7.93;;;18.30;99.90;;;;;;5065204;28;20435;-74
2021/06/16 02:03:29;;;;;;;11.00;8.20;;;18.30;99.90;;;;;;5061306;28;20472;-74
2021/06/16 02:06:19;;;;;;;9.20;7.30;;;18.20;99.90;;;;;;5067866;28;20414;-74
2021/06/16 02:09:06;;;;;;;9.20;7.00;;;18.10;99.90;;;;;;5073011;28;20523;-73
2021/06/16 02:11:51;;;;;;;9.40;6.57;;;18.10;99.90;;;;;;5076564;28;20975;-74
2021/06/16 02:14:37;;;;;;;12.17;9.00;;;18.10;99.90;;;;;;5077241;28;20390;-74
2021/06/16 02:17:28;;;;;;;11.17;7.43;;;18.20;99.90;;;;;;5072013;28;20489;-73
2021/06/16 02:20:15;;;;;;;10.03;8.50;;;18.10;99.90;;;;;;5077783;28;20417;-74
2021/06/16 02:23:01;;;;;;;10.93;8.90;;;18.20;99.90;;;;;;5075551;28;20429;-74
2021/06/16 02:25:49;;;;;;;10.90;7.10;;;18.10;99.90;;;;;;5076354;28;20442;-74
2021/06/16 02:28:35;;;;;;;10.10;7.23;;;18.10;99.90;;;;;;5075127;28;20466;-74
2021/06/16 02:31:20;;;;;;;15.47;7.70;;;18.10;99.90;;;;;;5077960;28;20581;-74
2021/06/16 02:34:07;;;;;;;15.53;8.57;;;18.20;99.90;;;;;;5065142;28;20429;-74
2021/06/16 02:36:57;;;;;;;9.23;6.77;;;18.10;99.90;;;;;;5070202;28;21016;-74
2021/06/16 02:39:46;;;;;;;8.10;7.17;;;18.10;99.90;;;;;;5063434;28;20474;-74
2021/06/16 02:42:32;;;;;;;10.77;7.67;;;18.00;99.90;;;;;;5065824;28;20535;-74
2021/06/16 02:45:19;;;;;;;8.80;7.93;;;18.00;99.90;;;;;;5066976;28;20938;-74
2021/06/16 02:48:07;;;;;;;14.47;8.83;;;18.00;99.90;;;;;;5071005;28;20550;-74
2021/06/16 02:50:56;;;;;;;11.57;8.30;;;17.90;99.90;;;;;;5068713;28;20443;-74
2021/06/16 02:53:44;;;;;;;9.73;7.33;;;17.90;99.90;;;;;;5085095;28;20939;-73
2021/06/16 02:56:30;;;;;;;9.70;7.80;;;17.80;99.90;;;;;;5080951;28;20564;-74
2021/06/16 02:59:18;;;;;;;10.10;8.47;;;17.80;99.90;;;;;;5064105;28;20428;-73
2021/06/16 03:02:04;;;;;;;10.93;8.03;;;17.80;99.90;;;;;;5081949;28;20421;-74
2021/06/16 03:04:52;;;;;;;9.20;7.40;;;17.90;99.90;;;;;;5080974;28;20429;-74
2021/06/16 03:07:41;;;;;;;10.40;8.27;;;17.90;99.90;;;;;;5068331;28;20823;-74
2021/06/16 03:10:28;;;;;;;8.70;7.63;;;17.90;99.90;;;;;;5064271;28;20450;-73
2021/06/16 03:13:15;;;;;;;13.30;8.07;;;18.00;99.90;;;;;;5062862;28;20443;-74
2021/06/16 03:16:02;;;;;;;11.60;7.87;;;17.90;99.90;;;;;;5069033;28;20471;-74
2021/06/16 03:18:49;;;;;;;9.47;7.40;;;17.90;99.90;;;;;;5061347;28;20421;-74
2021/06/16 03:21:36;;;;;;;10.77;8.37;;;17.90;99.90;;;;;;5068122;28;20585;-74
2021/06/16 03:24:25;;;;;;;16.60;9.30;;;17.80;99.90;;;;;;5067172;28;20491;-73
2021/06/16 03:27:12;;;;;;;14.47;7.30;;;17.90;99.90;;;;;;5082305;28;20527;-74
2021/06/16 03:29:58;;;;;;;9.13;8.00;;;17.80;99.90;;;;;;5075050;28;20459;-73
2021/06/16 03:32:45;;;;;;;19.07;8.07;;;17.80;99.90;;;;;;5081591;28;20467;-74
2021/06/16 03:35:31;;;;;;;8.83;8.03;;;17.80;99.90;;;;;;5067375;28;20606;-74
2021/06/16 03:38:17;;;;;;;11.43;9.00;;;17.70;99.90;;;;;;5071282;28;20461;-74
2021/06/16 03:41:05;;;;;;;11.33;8.10;;;17.80;99.90;;;;;;5060708;28;20455;-74
2021/06/16 03:43:52;;;;;;;17.83;8.47;;;17.80;99.90;;;;;;5065951;28;20429;-74
2021/06/16 03:46:40;;;;;;;9.20;8.13;;;17.80;99.90;;;;;;5067802;28;20517;-73
2021/06/16 03:49:28;;;;;;;9.73;8.17;;;17.70;99.90;;;;;;5060432;28;20482;-73
2021/06/16 03:52:16;;;;;;;14.20;8.67;;;17.70;99.90;;;;;;5068130;28;20450;-74
2021/06/16 03:55:02;;;;;;;10.60;7.80;;;17.70;99.90;;;;;;5064897;28;20790;-74
2021/06/16 03:57:50;;;;;;;11.63;8.37;;;17.80;99.90;;;;;;5069041;28;20435;-73
2021/06/16 04:00:37;;;;;;;14.30;8.63;;;17.80;99.90;;;;;;5060717;28;20432;-73
2021/06/16 04:03:23;;;;;;;13.73;8.00;;;17.70;99.90;;;;;;5073306;28;20955;-74
2021/06/16 04:06:09;;;;;;;9.80;8.90;;;17.70;99.90;;;;;;5071993;28;20574;-74
2021/06/16 04:08:55;;;;;;;9.47;7.90;;;17.70;99.90;;;;;;5067650;28;20453;-74
2021/06/16 04:11:42;;;;;;;9.03;8.13;;;17.80;99.90;;;;;;5071623;28;21177;-73
2021/06/16 04:14:29;;;;;;;13.37;8.77;;;17.80;99.90;;;;;;5077103;28;20513;-74
2021/06/16 04:17:16;;;;;;;8.87;7.53;;;17.90;99.90;;;;;;5065601;28;20491;-74
2021/06/16 04:20:02;;;;;;;14.13;8.13;;;17.90;99.90;;;;;;5059439;28;20553;-74
2021/06/16 04:22:48;;;;;;;9.30;7.90;;;18.00;99.90;;;;;;5066313;28;20418;-73
2021/06/16 04:25:34;;;;;;;11.37;8.03;;;18.10;99.90;;;;;;5063029;28;21004;-74
2021/06/16 04:28:20;;;;;;;12.40;8.23;;;18.00;99.90;;;;;;5062145;28;20487;-73
2021/06/16 04:31:07;;;;;;;12.20;8.50;;;18.20;99.90;;;;;;5069823;28;20520;-73
2021/06/16 04:33:52;;;;;;;12.53;8.60;;;18.20;99.90;;;;;;5076591;28;20445;-74
2021/06/16 04:36:38;;;;;;;9.70;8.03;;;18.20;99.90;;;;;;5063965;28;20486;-74
2021/06/16 04:39:24;;;;;;;10.63;8.13;;;18.30;99.90;;;;;;5066928;28;20922;-73
2021/06/16 04:42:09;;;;;;;10.20;8.50;;;18.40;99.90;;;;;;5073050;28;20496;-73
2021/06/16 04:44:55;;;;;;;14.10;8.40;;;18.50;99.90;;;;;;5079149;28;20976;-74
2021/06/16 04:47:42;;;;;;;10.50;9.37;;;18.50;99.90;;;;;;5078765;28;20910;-74
2021/06/16 04:50:28;;;;;;;9.80;8.80;;;18.60;99.90;;;;;;5066401;28;20469;-73
2021/06/16 04:53:13;;;;;;;18.87;8.20;;;18.60;99.90;;;;;;5063708;28;20497;-74
2021/06/16 04:55:59;;;;;;;10.80;9.53;;;18.70;99.90;;;;;;5066549;28;20470;-74
2021/06/16 04:58:44;;;;;;;16.20;8.97;;;18.70;99.90;;;;;;5060234;28;20975;-73
2021/06/16 05:01:29;;;;;;;11.93;7.33;;;18.70;99.90;;;;;;5061857;28;20951;-75
2021/06/16 05:04:16;;;;;;;12.30;8.20;;;18.70;99.90;;;;;;5062693;28;20913;-74
2021/06/16 05:07:02;;;;;;;13.47;8.93;;;18.80;99.90;;;;;;5079136;28;20989;-74
2021/06/16 05:09:48;;;;;;;18.17;9.00;;;18.80;99.90;;;;;;5070905;28;21213;-74
2021/06/16 05:12:33;;;;;;;9.23;8.20;;;18.80;99.90;;;;;;5074558;28;20450;-74
2021/06/16 05:15:19;;;;;;;9.57;8.00;;;18.80;99.90;;;;;;5072515;28;20442;-74
2021/06/16 05:18:08;;;;;;;11.60;8.30;;;19.00;99.90;;;;;;5074747;28;20653;-74
2021/06/16 05:20:55;;;;;;;13.43;8.53;;;19.00;99.90;;;;;;5079665;28;20428;-74
2021/06/16 05:23:42;;;;;;;10.90;8.73;;;19.10;99.90;;;;;;5077133;28;20573;-74
2021/06/16 05:26:28;;;;;;;17.03;8.77;;;19.10;99.90;;;;;;5066854;28;20443;-74
2021/06/16 05:29:13;;;;;;;11.97;8.90;;;19.10;99.90;;;;;;5066460;28;20440;-73
2021/06/16 05:31:59;;;;;;;12.80;8.27;;;19.20;99.90;;;;;;5072084;28;20482;-74
2021/06/16 05:34:45;;;;;;;10.30;9.17;;;19.20;99.90;;;;;;5062427;28;20424;-73
2021/06/16 05:37:32;;;;;;;8.53;7.73;;;19.30;99.90;;;;;;5070776;28;20826;-74
2021/06/16 05:40:18;;;;;;;9.23;8.03;;;19.30;99.90;;;;;;5063939;28;20439;-74
2021/06/16 05:43:03;;;;;;;22.93;9.07;;;19.40;99.90;;;;;;5071867;28;21069;-73
2021/06/16 05:45:49;;;;;;;13.90;9.80;;;19.50;99.90;;;;;;5081056;28;20648;-74
2021/06/16 05:48:34;;;;;;;9.67;7.73;;;19.50;99.90;;;;;;5075720;28;21099;-74
2021/06/16 05:51:20;;;;;;;13.23;8.53;;;19.60;99.90;;;;;;5074152;28;20420;-74
2021/06/16 05:54:10;;;;;;;10.03;9.03;;;19.70;99.90;;;;;;5082808;28;20452;-73
2021/06/16 05:56:58;;;;;;;9.90;8.90;;;19.80;99.90;;;;;;5082241;28;20452;-73
2021/06/16 05:59:43;;;;;;;12.67;9.30;;;19.90;99.90;;;;;;5066789;28;20436;-73
2021/06/16 06:02:29;;;;;;;12.50;9.10;;;20.00;99.90;;;;;;5076455;28;20446;-74
2021/06/16 06:05:15;;;;;;;9.37;8.10;;;20.20;99.90;;;;;;5072101;28;20516;-74
2021/06/16 06:08:00;;;;;;;13.57;8.43;;;20.30;99.90;;;;;;5060798;28;20439;-73
2021/06/16 06:10:48;;;;;;;10.57;9.37;;;20.40;99.90;;;;;;5070915;28;20440;-73
2021/06/16 06:13:34;;;;;;;15.50;10.27;;;20.60;99.90;;;;;;5064652;28;20559;-73
2021/06/16 06:16:20;;;;;;;11.13;9.67;;;20.70;99.90;;;;;;5067720;28;20441;-74
2021/06/16 06:19:06;;;;;;;16.53;9.77;;;20.90;99.90;;;;;;5066905;28;20577;-74
2021/06/16 06:21:51;;;;;;;16.13;9.20;;;21.00;99.90;;;;;;5069872;28;20448;-73
2021/06/16 06:24:37;;;;;;;13.50;9.70;;;21.20;99.90;;;;;;5077869;28;20940;-73
2021/06/16 06:27:25;;;;;;;13.70;9.10;;;21.30;99.90;;;;;;5069453;28;20540;-74
2021/06/16 06:30:11;;;;;;;12.53;9.43;;;21.50;99.90;;;;;;5082006;28;20410;-73
2021/06/16 06:32:57;;;;;;;10.80;9.30;;;21.60;99.90;;;;;;5073158;28;20486;-73
2021/06/16 06:35:42;;;;;;;9.50;8.10;;;21.70;99.90;;;;;;5079410;28;20716;-73
2021/06/16 06:38:28;;;;;;;12.50;8.50;;;21.90;99.90;;;;;;5075121;28;20936;-74
2021/06/16 06:41:13;;;;;;;13.77;9.07;;;22.00;99.90;;;;;;5067547;28;20467;-74
2021/06/16 06:44:00;;;;;;;10.90;8.70;;;22.20;99.90;;;;;;5071535;28;21106;-73
2021/06/16 06:46:46;;;;;;;8.00;7.27;;;22.40;99.90;;;;;;5067111;28;20496;-74
2021/06/16 06:49:32;;;;;;;10.80;7.80;;;22.50;99.90;;;;;;5059352;28;20448;-74
2021/06/16 06:52:17;;;;;;;10.30;8.30;;;22.60;99.90;;;;;;5064131;28;20414;-73
2021/06/16 06:55:03;;;;;;;10.27;7.13;;;22.70;99.90;;;;;;5066385;28;20456;-74
2021/06/16 06:57:48;;;;;;;12.70;8.77;;;22.90;99.90;;;;;;5061396;28;20551;-74
2021/06/16 07:00:35;;;;;;;9.83;7.80;;;23.00;99.90;;;;;;5064980;28;20445;-74
2021/06/16 07:03:21;;;;;;;16.57;8.00;;;23.20;99.90;;;;;;5059605;28;20443;-74
2021/06/16 07:06:07;;;;;;;18.27;6.87;;;23.30;99.90;;;;;;5061460;28;20814;-74
2021/06/16 07:08:53;;;;;;;7.80;6.90;;;23.40;99.90;;;;;;5060067;28;20448;-73
2021/06/16 07:11:38;;;;;;;10.80;7.97;;;23.50;99.90;;;;;;5062851;28;20452;-74
2021/06/16 07:14:24;;;;;;;9.23;6.80;;;23.60;99.90;;;;;;5056103;28;20831;-74
2021/06/16 07:17:11;;;;;;;8.87;5.87;;;23.70;99.90;;;;;;5060298;28;20617;-74
2021/06/16 07:19:57;;;;;;;12.87;7.13;;;23.70;99.90;;;;;;5063591;28;20494;-73
2021/06/16 07:22:43;;;;;;;11.50;5.97;;;23.90;99.90;;;;;;5066738;28;20430;-73
2021/06/16 07:25:29;;;;;;;8.40;6.10;;;24.00;99.90;;;;;;5059317;28;20435;-73
2021/06/16 07:28:15;;;;;;;8.43;6.37;;;24.10;99.90;;;;;;5067012;28;20448;-72
2021/06/16 07:31:01;;;;;;;14.70;6.03;;;24.20;99.90;;;;;;5060009;28;20511;-73
2021/06/16 07:33:48;;;;;;;11.80;6.63;;;24.30;99.90;;;;;;5067199;28;20972;-72
2021/06/16 07:36:34;;;;;;;7.20;6.07;;;24.40;99.90;;;;;;5061739;28;20420;-73
2021/06/16 07:39:19;;;;;;;7.28;5.90;;;24.60;98.40;;;;;;5059192;28;20954;-74
2021/06/16 07:42:06;;;;;;;9.40;6.60;;;24.70;94.50;;;;;;5065009;28;20224;-73
2021/06/16 07:44:52;;;;;;;12.63;5.77;;;24.80;95.10;;;;;;5060427;28;20448;-73
2021/06/16 07:47:38;;;;;;;8.80;6.20;;;24.80;94.50;;;;;;5064319;28;21003;-73
2021/06/16 07:50:26;;;;;;;13.50;6.07;;;24.90;94.10;;;;;;5063317;28;20980;-73
2021/06/16 07:53:11;;;;;;;8.00;5.80;;;25.00;94.70;;;;;;5064734;28;20448;-74
2021/06/16 07:55:57;;;;;;;23.13;5.93;;;25.00;92.30;;;;;;5064047;28;20969;-73
2021/06/16 07:58:43;;;;;;;8.50;5.90;;;25.10;94.60;;;;;;5060788;28;20529;-73
2021/06/16 08:01:28;;;;;;;10.13;6.70;;;25.20;91.70;;;;;;5065205;28;20457;-73
2021/06/16 08:04:14;;;;;;;18.03;6.10;;;25.30;92.20;;;;;;5068516;28;20418;-73
2021/06/16 08:07:03;;;;;;;7.30;5.70;;;25.40;94.10;;;;;;5065185;28;20973;-73
2021/06/16 08:09:49;;;;;;;7.93;5.70;;;25.50;91.60;;;;;;5055464;28;20604;-73
2021/06/16 08:12:34;;;;;;;13.27;6.20;;;25.60;92.80;;;;;;5067300;28;20444;-73
2021/06/16 08:15:20;;;;;;;11.50;5.87;;;25.70;94.10;;;;;;5062947;28;20433;-73
2021/06/16 08:18:06;;;;;;;9.10;6.57;;;25.80;91.40;;;;;;5061195;28;20517;-73
2021/06/16 08:20:52;;;;;;;8.83;6.00;;;25.90;89.60;;;;;;5063172;28;20527;-72
2021/06/16 08:23:39;;;;;;;10.13;5.77;;;25.90;90.00;;;;;;5063707;28;20490;-73
2021/06/16 08:26:25;;;;;;;10.90;5.13;;;26.00;90.90;;;;;;5060546;28;20457;-73
2021/06/16 08:29:11;;;;;;;17.10;5.30;;;26.10;90.50;;;;;;5061388;28;20588;-74
2021/06/16 08:31:57;;;;;;;10.83;5.80;;;26.10;81.00;;;;;;5063782;28;20437;-74
2021/06/16 08:34:43;;;;;;;6.03;4.97;;;26.20;91.00;;;;;;5054961;28;20530;-73
2021/06/16 08:37:28;;;;;;;7.63;5.40;;;26.30;80.50;;;;;;5065920;28;20475;-74
2021/06/16 08:40:17;;;;;;;7.87;5.80;;;26.30;69.80;;;;;;5060641;28;20449;-73
2021/06/16 08:43:03;;;;;;;7.80;5.30;;;26.30;70.20;;;;;;5065665;28;20577;-73
2021/06/16 08:45:49;;;;;;;7.60;5.47;;;26.40;72.60;;;;;;5060692;28;20457;-73
2021/06/16 08:48:36;;;;;;;6.73;4.83;;;26.40;69.50;;;;;;5062782;28;20466;-73
2021/06/16 08:51:22;;;;;;;9.90;4.80;;;26.50;69.00;;;;;;5061098;28;20469;-74
2021/06/16 08:54:09;;;;;;;8.77;4.73;;;26.60;70.60;;;;;;5059270;28;20509;-76
2021/06/16 08:56:57;;;;;;;5.63;4.97;;;26.70;75.60;;;;;;5060630;28;21003;-73
2021/06/16 08:59:43;;;;;;;8.00;5.10;;;26.80;68.60;;;;;;5064956;28;20452;-76
2021/06/16 09:02:29;;;;;;;7.57;4.57;;;26.80;66.90;;;;;;5061744;28;20437;-74
2021/06/16 09:05:15;;;;;;;7.47;4.70;;;26.90;63.80;;;;;;5067001;28;20449;-74
2021/06/16 09:08:02;;;;;;;6.07;3.60;;;26.90;62.90;;;;;;5052229;28;20553;-75
2021/06/16 09:10:49;;;;;;;4.57;3.50;;;27.00;62.30;;;;;;5063193;28;20955;-74
2021/06/16 09:13:36;;;;;;;5.90;3.33;;;27.00;50.60;;;;;;5067210;28;20467;-75
2021/06/16 09:16:27;;;;;;;4.73;3.60;;;27.10;54.10;;;;;;5065177;28;20510;-74
2021/06/16 09:19:21;;;;;;;6.30;4.00;;;27.20;59.20;;;;;;5066998;28;21013;-75
2021/06/16 09:22:08;;;;;;;4.40;3.10;;;27.30;51.00;;;;;;5066202;28;20586;-74
2021/06/16 09:24:54;;;;;;;5.80;3.43;;;27.30;49.40;;;;;;5064800;28;20446;-73
2021/06/16 09:27:46;;;;;;;4.87;3.50;;;27.40;48.80;;;;;;5063730;28;20444;-75
2021/06/16 09:30:41;;;;;;;8.17;3.20;;;27.50;46.90;;;;;;5063620;28;21058;-76
2021/06/16 09:33:28;;;;;;;6.47;3.10;;;27.50;46.90;;;;;;5069920;28;20466;-75
2021/06/16 09:36:15;;;;;;;7.17;3.23;;;27.60;43.60;;;;;;5060372;28;20828;-75
2021/06/16 09:39:09;;;;;;;4.93;2.87;;;27.50;44.20;;;;;;5060834;28;20852;-75
2021/06/16 09:41:57;;;;;;;5.23;3.13;;;27.70;47.10;;;;;;5069317;28;20466;-75
2021/06/16 09:44:48;;;;;;;8.57;3.17;;;27.80;47.20;;;;;;5067340;28;21059;-75
2021/06/16 09:47:37;;;;;;;4.03;2.97;;;27.80;44.20;;;;;;5066288;28;20962;-75
2021/06/16 09:50:24;;;;;;;5.13;3.50;;;27.80;43.40;;;;;;5060396;28;20437;-75
2021/06/16 09:53:09;;;;;;;3.93;2.83;;;27.80;43.40;;;;;;5064726;28;20555;-75
2021/06/16 09:56:14;;;;;;;4.60;3.30;;;27.80;42.80;;;;;;5067720;28;20585;-73
2021/06/16 09:59:00;;;;;;;6.40;2.90;;;27.90;42.00;;;;;;5067003;28;20482;-74
2021/06/16 10:01:52;;;;;;;4.07;3.23;;;28.10;47.60;;;;;;5060631;28;20449;-75
2021/06/16 10:04:42;;;;;;;5.57;2.77;;;28.20;47.50;;;;;;5069003;28;20446;-75
2021/06/16 10:07:29;;;;;;;5.80;3.70;;;28.40;49.30;;;;;;5061122;28;20474;-74
2021/06/16 10:10:16;;;;;;;4.67;2.97;;;28.50;45.60;;;;;;5063219;28;20639;-75
2021/06/16 10:13:02;;;;;;;7.13;3.93;;;28.50;42.60;;;;;;5066563;28;20443;-74
2021/06/16 10:15:48;;;;;;;5.57;2.90;;;28.60;42.60;;;;;;5075788;28;20944;-74
2021/06/16 10:18:39;;;;;;;4.50;3.13;;;28.60;41.80;;;;;;5064068;28;20482;-74
2021/06/16 10:21:26;;;;;;;10.63;2.77;;;28.70;44.10;;;;;;5066247;28;20971;-74
2021/06/16 10:24:11;;;;;;;3.83;3.10;;;28.70;39.20;;;;;;5056757;28;20438;-74
2021/06/16 10:27:00;;;;;;;5.85;3.40;;;28.80;42.30;;;;;;5063480;28;20480;-74
2021/06/16 10:29:49;;;;;;;6.30;4.00;;;28.90;41.00;;;;;;5062728;28;20196;-74
2021/06/16 10:32:39;;;;;;;8.10;3.30;;;28.90;40.30;;;;;;5067871;28;20808;-74
2021/06/16 10:35:36;;;;;;;4.80;3.90;;;29.00;40.10;;;;;;5066388;28;20984;-74
2021/06/16 10:38:24;;;;;;;4.60;3.10;;;29.00;39.40;;;;;;5060441;28;20474;-74
2021/06/16 10:41:09;;;;;;;6.10;2.97;;;29.00;39.10;;;;;;5065650;28;20447;-74
2021/06/16 10:44:11;;;;;;;7.80;3.70;;;29.00;40.40;;;;;;5062986;28;20463;-74
2021/06/16 10:46:58;;;;;;;5.53;3.30;;;29.10;39.50;;;;;;5065959;28;20485;-74
2021/06/16 10:49:53;;;;;;;5.27;3.70;;;29.00;41.60;;;;;;5065805;28;20463;-74
2021/06/16 10:53:03;;;;;;;5.33;3.30;;;29.10;43.20;;;;;;5058399;28;20431;-74
2021/06/16 10:56:08;;;;;;;7.27;2.93;;;29.30;42.10;;;;;;5061984;28;20447;-74
2021/06/16 10:58:54;;;;;;;5.53;2.93;;;29.30;39.70;;;;;;5063597;28;21245;-74
2021/06/16 11:01:47;;;;;;;10.73;3.50;;;29.30;38.30;;;;;;5067903;28;20447;-74
2021/06/16 11:04:33;;;;;;;7.27;3.07;;;29.40;42.20;;;;;;5067878;28;20461;-74
2021/06/16 11:07:39;;;;;;;4.82;3.35;;;29.50;37.40;;;;;;5071613;28;20449;-74
2021/06/16 11:10:52;;;;;;;4.00;3.10;;;29.60;39.40;;;;;;5057100;28;20201;-74
2021/06/16 11:13:44;;;;;;;4.77;2.90;;;29.60;38.80;;;;;;5063969;28;20450;-74
2021/06/16 11:16:45;;;;;;;7.73;3.03;;;29.70;40.00;;;;;;5064363;28;20439;-74
2021/06/16 11:19:42;;;;;;;4.23;3.00;;;29.80;38.50;;;;;;5065918;28;20475;-74
2021/06/16 11:22:47;;;;;;;4.07;2.67;;;29.80;37.20;;;;;;5062831;28;20581;-74
2021/06/16 11:25:38;;;;;;;7.10;3.70;;;29.80;37.10;;;;;;5060982;28;21004;-74
2021/06/16 11:28:37;;;;;;;5.67;3.20;;;29.80;39.60;;;;;;5067100;28;20477;-74
2021/06/16 11:31:24;;;;;;;4.37;3.20;;;30.00;41.00;;;;;;5068900;28;20440;-74
2021/06/16 11:34:09;;;;;;;5.20;3.10;;;30.00;37.20;;;;;;5061248;28;21175;-74
2021/06/16 11:36:55;;;;;;;9.33;3.70;;;29.90;35.50;;;;;;5067936;28;21347;-74
2021/06/16 11:39:41;;;;;;;4.53;2.80;;;29.90;40.00;;;;;;5062727;28;20471;-74
2021/06/16 11:42:27;;;;;;;9.20;2.80;;;30.10;39.20;;;;;;5064200;28;20443;-74
2021/06/16 11:45:13;;;;;;;4.97;3.00;;;30.20;37.00;;;;;;5067513;28;20443;-74
2021/06/16 11:48:01;;;;;;;4.20;2.63;;;30.20;38.30;;;;;;5063143;28;20975;-74
2021/06/16 11:50:47;;;;;;;6.53;3.63;;;30.30;37.70;;;;;;5060495;28;20447;-74
2021/06/16 11:53:34;;;;;;;4.60;3.50;;;30.40;37.40;;;;;;5064056;28;20454;-74
2021/06/16 11:56:20;;;;;;;11.00;3.17;;;30.30;34.90;;;;;;5061872;28;20496;-74
2021/06/16 11:59:06;;;;;;;7.30;4.30;;;30.50;39.70;;;;;;5061636;28;20489;-74
2021/06/16 12:02:03;;;;;;;5.57;3.57;;;30.60;38.50;;;;;;5059168;28;20458;-74
2021/06/16 12:04:53;;;;;;;5.43;3.30;;;30.70;37.40;;;;;;5065044;28;20455;-74
2021/06/16 12:07:48;;;;;;;5.20;3.27;;;30.90;37.00;;;;;;5062145;28;20545;-74
2021/06/16 12:10:34;;;;;;;6.80;3.80;;;31.00;36.60;;;;;;5063009;28;20800;-74
2021/06/16 12:13:19;;;;;;;4.20;3.10;;;31.00;35.40;;;;;;5071623;28;21027;-74
2021/06/16 12:16:06;;;;;;;8.10;3.20;;;31.20;35.60;;;;;;5060967;28;20451;-74
2021/06/16 12:18:51;;;;;;;4.63;3.40;;;30.90;34.20;;;;;;5062092;28;20467;-74
2021/06/16 12:21:39;;;;;;;6.40;5.07;;;30.90;35.30;;;;;;5057492;28;20505;-74
2021/06/16 12:24:27;;;;;;;4.90;3.37;;;30.90;35.00;;;;;;5064939;28;20443;-74
2021/06/16 12:27:15;;;;;;;4.20;3.10;;;30.90;38.10;;;;;;5066378;28;20459;-74
2021/06/16 12:30:01;;;;;;;8.23;3.50;;;31.00;36.70;;;;;;5053734;28;20420;-74
2021/06/16 12:33:12;;;;;;;10.00;3.20;;;31.20;36.70;;;;;;5064191;28;20454;-74
2021/06/16 12:36:06;;;;;;;8.87;3.50;;;31.30;37.00;;;;;;5062685;28;20974;-74
2021/06/16 12:38:55;;;;;;;5.00;2.83;;;31.40;39.20;;;;;;5060099;28;20463;-74
2021/06/16 12:41:42;;;;;;;7.10;3.30;;;31.60;35.90;;;;;;5057598;28;20442;-74
2021/06/16 12:44:33;;;;;;;5.50;3.53;;;31.50;35.20;;;;;;5065895;28;20482;-74
2021/06/16 12:47:25;;;;;;;4.90;3.53;;;31.50;35.80;;;;;;5062729;28;20467;-73
2021/06/16 12:50:11;;;;;;;5.00;3.20;;;31.40;35.80;;;;;;5064342;28;20973;-73
2021/06/16 12:52:56;;;;;;;14.83;3.50;;;31.50;37.50;;;;;;5063753;28;20447;-73
2021/06/16 12:55:49;;;;;;;4.83;3.33;;;31.40;36.60;;;;;;5065520;28;20439;-73
2021/06/16 12:58:45;;;;;;;7.43;3.47;;;31.30;36.20;;;;;;5068739;28;20470;-73
2021/06/16 13:01:31;;;;;;;5.70;3.40;;;31.20;35.60;;;;;;5061026;28;20574;-73
2021/06/16 13:04:17;;;;;;;6.10;3.50;;;31.20;35.90;;;;;;5076443;28;20443;-73
2021/06/16 13:07:02;;;;;;;5.63;3.50;;;31.20;35.20;;;;;;5066299;28;20514;-74
2021/06/16 13:10:02;;;;;;;5.40;3.40;;;31.30;39.20;;;;;;5079091;28;20461;-74
2021/06/16 13:12:57;;;;;;;4.07;3.17;;;31.40;36.70;;;;;;5072406;28;20446;-74
2021/06/16 13:15:52;;;;;;;5.40;2.90;;;31.50;34.10;;;;;;5068981;28;20223;-74
2021/06/16 13:18:37;;;;;;;8.50;3.20;;;31.70;36.70;;;;;;5066434;28;21009;-75
2021/06/16 13:21:23;;;;;;;9.07;3.00;;;31.70;36.80;;;;;;5062727;28;20954;-75
2021/06/16 13:24:09;;;;;;;5.23;3.00;;;31.60;36.70;;;;;;5060665;28;20470;-75
2021/06/16 13:27:03;;;;;;;7.90;3.80;;;31.70;36.40;;;;;;5062207;28;20478;-75
2021/06/16 13:29:59;;;;;;;5.40;3.60;;;31.70;38.00;;;;;;5058234;28;20459;-75
2021/06/16 13:32:45;;;;;;;4.87;3.40;;;31.80;35.30;;;;;;5055753;28;20807;-75
2021/06/16 13:35:31;;;;;;;6.77;3.70;;;31.80;31.70;;;;;;5064053;28;20455;-75
2021/06/16 13:38:16;;;;;;;9.70;2.90;;;31.80;35.00;;;;;;5067556;28;21310;-75
2021/06/16 13:41:02;;;;;;;10.55;3.38;;;31.70;35.00;;;;;;5061586;28;20443;-75
2021/06/16 13:43:48;;;;;;;5.10;2.93;;;31.80;34.20;;;;;;5059468;28;20247;-75
2021/06/16 13:46:35;;;;;;;4.63;3.00;;;31.80;33.30;;;;;;5058347;28;20474;-75
2021/06/16 13:49:21;;;;;;;5.67;3.00;;;31.90;33.70;;;;;;5065639;28;20809;-75
2021/06/16 13:52:07;;;;;;;5.70;2.97;;;31.80;32.60;;;;;;5061393;28;20852;-75
2021/06/16 13:54:52;;;;;;;4.07;3.00;;;31.60;31.60;;;;;;5062289;28;21072;-75
2021/06/16 13:57:38;;;;;;;12.43;3.43;;;31.80;32.60;;;;;;5063088;28;20505;-75
2021/06/16 14:00:24;;;;;;;9.87;3.50;;;31.80;33.50;;;;;;5063236;28;20513;-74
2021/06/16 14:03:11;;;;;;;4.90;3.10;;;31.90;36.20;;;;;;5054952;28;20463;-74
2021/06/16 14:05:58;;;;;;;5.10;2.55;;;32.00;33.30;;;;;;5060129;28;20472;-74
2021/06/16 14:08:44;;;;;;;6.50;3.70;;;32.10;35.70;;;;;;5066818;28;20297;-75
2021/06/16 14:11:29;;;;;;;4.60;3.23;;;32.20;35.20;;;;;;5063984;28;20458;-75
2021/06/16 14:14:15;;;;;;;5.07;3.27;;;32.30;33.60;;;;;;5059025;28;20485;-75
2021/06/16 14:17:00;;;;;;;4.73;3.17;;;32.30;34.70;;;;;;5065622;28;20833;-75
2021/06/16 14:19:47;;;;;;;4.63;3.10;;;32.40;32.30;;;;;;5063425;28;21449;-76
2021/06/16 14:22:33;;;;;;;8.43;3.43;;;32.40;32.80;;;;;;5060626;28;20456;-77
2021/06/16 14:25:20;;;;;;;7.70;3.40;;;32.50;36.70;;;;;;5066026;28;20536;-77
2021/06/16 14:28:07;;;;;;;6.60;2.70;;;32.60;33.30;;;;;;5067957;28;20482;-77